Time;durP1;ratioP1;P1;durP2;ratioP2;P2;SDS_P1;SDS_P2;PMS_P1;PMS_P2;Temp;Humidity;BMP_temperature;BMP_pressure;BME280_temperature;BME280_humidity;BME280_pressure;Samples;Min_cycle;Max_cycle;Signal;HPM_P1;HPM_P2
2024/04/16 00:01:21;;;;;;;0.52;0.28;;;;;;;;;;5486896;26;20017;-54
2024/04/16 00:03:50;;;;;;;0.88;0.32;;;;;;;;;;5486874;26;20001;-57
2024/04/16 00:06:15;;;;;;;0.52;0.30;;;;;;;;;;5487129;26;20013;-57
2024/04/16 00:08:44;;;;;;;1.48;0.45;;;;;;;;;;5486813;26;20434;-53
2024/04/16 00:11:10;;;;;;;1.52;0.50;;;;;;;;;;5486968;26;20010;-56
2024/04/16 00:13:38;;;;;;;1.33;0.63;;;;;;;;;;5486952;26;20002;-54
2024/04/16 00:16:05;;;;;;;1.45;0.50;;;;;;;;;;5486706;26;20002;-58
2024/04/16 00:18:36;;;;;;;1.80;0.45;;;;;;;;;;5487563;26;19998;-59
2024/04/16 00:21:02;;;;;;;0.93;0.40;;;;;;;;;;5486996;26;20063;-57
2024/04/16 00:23:31;;;;;;;1.13;0.32;;;;;;;;;;5487001;26;20010;-57
2024/04/16 00:25:56;;;;;;;0.40;0.30;;;;;;;;;;5486988;26;19998;-54
2024/04/16 00:28:25;;;;;;;1.13;0.40;;;;;;;;;;5487092;26;20002;-60
2024/04/16 00:30:51;;;;;;;2.22;0.60;;;;;;;;;;5486816;26;19994;-52
2024/04/16 00:33:19;;;;;;;1.05;0.47;;;;;;;;;;5486659;26;20013;-56
2024/04/16 00:35:48;;;;;;;1.52;0.40;;;;;;;;;;5486915;26;20006;-52
2024/04/16 00:38:17;;;;;;;1.00;0.40;;;;;;;;;;5486739;26;20088;-59
2024/04/16 00:40:42;;;;;;;1.48;0.50;;;;;;;;;;5486768;26;20006;-54
2024/04/16 00:43:18;;;;;;;0.40;0.38;;;;;;;;;;5486642;26;20002;-57
2024/04/16 00:45:49;;;;;;;0.40;0.30;;;;;;;;;;5487095;26;21661;-58
2024/04/16 00:48:18;;;;;;;0.85;0.30;;;;;;;;;;5486761;26;20002;-56
2024/04/16 00:50:48;;;;;;;0.98;0.43;;;;;;;;;;5485841;26;20015;-58
2024/04/16 00:53:17;;;;;;;0.63;0.40;;;;;;;;;;5486333;26;20100;-57
2024/04/16 00:55:44;;;;;;;1.38;0.50;;;;;;;;;;5486189;26;20010;-58
2024/04/16 00:58:15;;;;;;;1.35;0.40;;;;;;;;;;5477882;26;20009;-57
2024/04/16 01:00:41;;;;;;;2.38;0.50;;;;;;;;;;5485614;26;20056;-59
2024/04/16 01:03:09;;;;;;;1.42;0.50;;;;;;;;;;5486047;26;20034;-58
2024/04/16 01:05:36;;;;;;;1.45;0.50;;;;;;;;;;5485857;26;20017;-56
2024/04/16 01:08:10;;;;;;;0.85;0.57;;;;;;;;;;5485930;26;20331;-54
2024/04/16 01:10:38;;;;;;;0.85;0.40;;;;;;;;;;5486213;26;20018;-56
2024/04/16 01:13:07;;;;;;;1.58;0.60;;;;;;;;;;5482504;26;20002;-57
2024/04/16 01:15:32;;;;;;;1.65;0.50;;;;;;;;;;5489244;26;20067;-56
2024/04/16 01:18:02;;;;;;;1.60;0.60;;;;;;;;;;5489552;26;20415;-58
2024/04/16 01:20:28;;;;;;;1.45;0.60;;;;;;;;;;5488952;26;20059;-59
2024/04/16 01:22:59;;;;;;;2.03;0.55;;;;;;;;;;5480700;26;20002;-58
2024/04/16 01:25:25;;;;;;;1.88;0.60;;;;;;;;;;5486838;26;20028;-57
2024/04/16 01:27:54;;;;;;;0.52;0.40;;;;;;;;;;5476238;26;20005;-53
2024/04/16 01:30:20;;;;;;;1.13;0.40;;;;;;;;;;5489465;26;19998;-54
2024/04/16 01:32:48;;;;;;;1.00;0.40;;;;;;;;;;5488752;26;20010;-58
2024/04/16 01:35:14;;;;;;;1.05;0.40;;;;;;;;;;5488271;26;20375;-58
2024/04/16 01:37:43;;;;;;;1.95;0.50;;;;;;;;;;5489440;26;20006;-58
2024/04/16 01:40:12;;;;;;;1.77;0.57;;;;;;;;;;5478947;26;19998;-56
2024/04/16 01:42:41;;;;;;;0.60;0.40;;;;;;;;;;5485783;26;20334;-57
2024/04/16 01:45:07;;;;;;;2.53;1.02;;;;;;;;;;5486018;26;20010;-58
2024/04/16 01:47:35;;;;;;;2.10;0.55;;;;;;;;;;5480061;26;20399;-57
2024/04/16 01:50:01;;;;;;;1.45;0.60;;;;;;;;;;5480303;26;20018;-57
2024/04/16 01:52:30;;;;;;;3.45;0.52;;;;;;;;;;5488310;26;19999;-60
2024/04/16 01:54:56;;;;;;;1.70;0.70;;;;;;;;;;5488198;26;19998;-56
2024/04/16 01:57:27;;;;;;;1.13;0.50;;;;;;;;;;5489040;26;20002;-57
2024/04/16 01:59:53;;;;;;;0.93;0.40;;;;;;;;;;5474702;26;20009;-58
2024/04/16 02:02:21;;;;;;;1.33;0.40;;;;;;;;;;5488957;26;19998;-52
2024/04/16 02:04:47;;;;;;;1.98;0.50;;;;;;;;;;5475341;26;20022;-58
2024/04/16 02:07:16;;;;;;;1.92;0.68;;;;;;;;;;5489021;26;20006;-53
2024/04/16 02:09:42;;;;;;;2.38;0.50;;;;;;;;;;5473748;26;20014;-56
2024/04/16 02:12:10;;;;;;;0.77;0.40;;;;;;;;;;5417291;21;20020;-75
2024/04/16 02:14:39;;;;;;;1.25;0.68;;;;;;;;;;5345581;26;20104;-75
2024/04/16 02:17:07;;;;;;;2.22;0.73;;;;;;;;;;5357640;26;20423;-75
2024/04/16 02:19:34;;;;;;;0.70;0.43;;;;;;;;;;5345913;26;20096;-75
2024/04/16 02:22:02;;;;;;;2.05;0.60;;;;;;;;;;5345873;26;20001;-74
2024/04/16 02:24:29;;;;;;;2.03;0.60;;;;;;;;;;5332189;26;20013;-75
2024/04/16 02:26:58;;;;;;;1.95;0.60;;;;;;;;;;5345519;26;20013;-75
2024/04/16 02:29:24;;;;;;;1.20;0.50;;;;;;;;;;5351871;26;20040;-76
2024/04/16 02:31:55;;;;;;;1.95;0.50;;;;;;;;;;5354479;26;20305;-76
2024/04/16 02:34:21;;;;;;;0.90;0.50;;;;;;;;;;5365159;26;20076;-76
2024/04/16 02:36:49;;;;;;;1.77;0.60;;;;;;;;;;5347950;26;20009;-75
2024/04/16 02:39:16;;;;;;;1.00;0.60;;;;;;;;;;5360209;26;20007;-75
2024/04/16 02:41:44;;;;;;;1.23;0.60;;;;;;;;;;5360655;26;20075;-75
2024/04/16 02:44:10;;;;;;;1.35;0.60;;;;;;;;;;5351851;26;20015;-74
2024/04/16 02:46:39;;;;;;;1.73;1.15;;;;;;;;;;5349840;26;20002;-75
2024/04/16 02:49:07;;;;;;;1.48;0.63;;;;;;;;;;5353545;26;20001;-75
2024/04/16 02:51:36;;;;;;;1.73;0.70;;;;;;;;;;5356059;26;20009;-75
2024/04/16 02:54:02;;;;;;;1.33;0.60;;;;;;;;;;5359716;26;20390;-75
2024/04/16 02:56:30;;;;;;;4.03;0.75;;;;;;;;;;5345032;26;20009;-76
2024/04/16 02:58:56;;;;;;;1.67;0.75;;;;;;;;;;5346433;26;20023;-75
2024/04/16 03:01:24;;;;;;;0.95;0.60;;;;;;;;;;5362300;26;20464;-75
2024/04/16 03:03:54;;;;;;;4.30;0.95;;;;;;;;;;5347293;26;19997;-75
2024/04/16 03:06:25;;;;;;;1.60;0.70;;;;;;;;;;5362332;26;20005;-75
2024/04/16 03:08:51;;;;;;;1.90;0.60;;;;;;;;;;5346803;26;20358;-76
2024/04/16 03:11:20;;;;;;;2.42;0.73;;;;;;;;;;5346358;26;20005;-76
2024/04/16 03:13:45;;;;;;;4.22;1.33;;;;;;;;;;5346219;26;20011;-76
2024/04/16 03:16:14;;;;;;;4.22;1.15;;;;;;;;;;5362178;26;19997;-77
2024/04/16 03:18:40;;;;;;;3.83;0.80;;;;;;;;;;5345514;26;20011;-76
2024/04/16 03:21:08;;;;;;;2.38;0.70;;;;;;;;;;5346065;26;20347;-78
2024/04/16 03:23:37;;;;;;;1.92;0.73;;;;;;;;;;5346178;26;19997;-76
2024/04/16 03:26:06;;;;;;;3.75;0.70;;;;;;;;;;5345244;26;20375;-76
2024/04/16 03:28:32;;;;;;;3.65;1.10;;;;;;;;;;5352977;26;20073;-76
2024/04/16 03:31:01;;;;;;;4.90;1.05;;;;;;;;;;5370272;26;20482;-77
2024/04/16 03:33:27;;;;;;;3.33;0.80;;;;;;;;;;5337384;26;20335;-76
2024/04/16 03:35:56;;;;;;;4.55;0.95;;;;;;;;;;5352804;26;20005;-75
2024/04/16 03:38:25;;;;;;;2.83;0.70;;;;;;;;;;5351146;26;20015;-75
2024/04/16 03:41:01;;;;;;;2.67;1.10;;;;;;;;;;5353842;26;20020;-75
2024/04/16 03:43:27;;;;;;;7.05;1.00;;;;;;;;;;5329787;26;20005;-75
2024/04/16 03:45:56;;;;;;;4.28;1.13;;;;;;;;;;5343722;26;20040;-75
2024/04/16 03:48:23;;;;;;;3.88;0.90;;;;;;;;;;5344957;26;20001;-75
2024/04/16 03:50:51;;;;;;;3.10;1.33;;;;;;;;;;5346972;26;20013;-75
2024/04/16 03:53:18;;;;;;;3.03;0.90;;;;;;;;;;5352177;26;20016;-75
2024/04/16 03:55:46;;;;;;;4.28;0.98;;;;;;;;;;5344953;26;20001;-75
2024/04/16 03:58:15;;;;;;;2.28;0.70;;;;;;;;;;5345010;26;20039;-75
2024/04/16 04:03:33;;;;;;;2.38;0.98;;;;;;;;;;5308035;26;20075;-76
2024/04/16 04:06:00;;;;;;;1.88;1.00;;;;;;;;;;5346192;26;20490;-76
2024/04/16 04:08:28;;;;;;;3.35;0.82;;;;;;;;;;5345219;26;20004;-76
2024/04/16 04:10:54;;;;;;;1.65;1.00;;;;;;;;;;5344124;26;20005;-76
2024/04/16 04:13:25;;;;;;;2.33;1.00;;;;;;;;;;5357646;26;20023;-75
2024/04/16 04:15:51;;;;;;;3.47;0.90;;;;;;;;;;5344355;26;20005;-75
2024/04/16 04:18:20;;;;;;;1.95;0.80;;;;;;;;;;5342610;26;20016;-75
2024/04/16 04:20:46;;;;;;;4.25;0.95;;;;;;;;;;5343673;26;20015;-75
2024/04/16 04:23:14;;;;;;;2.42;0.80;;;;;;;;;;5352542;26;20002;-76
2024/04/16 04:25:40;;;;;;;2.33;0.90;;;;;;;;;;5343854;26;20356;-76
2024/04/16 04:28:09;;;;;;;3.60;0.90;;;;;;;;;;5344665;26;20005;-76
2024/04/16 04:30:38;;;;;;;2.33;0.75;;;;;;;;;;5344364;26;20005;-76
2024/04/16 04:33:06;;;;;;;1.85;1.00;;;;;;;;;;5344551;26;20082;-76
2024/04/16 04:35:32;;;;;;;2.35;0.90;;;;;;;;;;5336243;26;20475;-77
2024/04/16 04:38:01;;;;;;;3.53;0.90;;;;;;;;;;5337666;26;20045;-76
2024/04/16 04:40:27;;;;;;;3.78;0.82;;;;;;;;;;5335974;26;20336;-76
2024/04/16 04:42:58;;;;;;;2.05;0.95;;;;;;;;;;5341859;26;20508;-76
2024/04/16 04:45:24;;;;;;;3.25;1.00;;;;;;;;;;5345295;26;20015;-76
2024/04/16 04:47:55;;;;;;;2.65;1.00;;;;;;;;;;5346983;26;20049;-76
2024/04/16 04:50:21;;;;;;;4.07;1.40;;;;;;;;;;5361211;26;20005;-76
2024/04/16 04:52:49;;;;;;;3.20;1.00;;;;;;;;;;5347500;26;20001;-76
2024/04/16 04:55:15;;;;;;;2.92;1.20;;;;;;;;;;5350988;26;20005;-75
2024/04/16 04:57:44;;;;;;;3.25;1.13;;;;;;;;;;5357600;26;20462;-75
2024/04/16 05:00:10;;;;;;;2.78;1.10;;;;;;;;;;5364064;26;20070;-74
2024/04/16 05:02:39;;;;;;;4.38;1.35;;;;;;;;;;5355403;26;20016;-76
2024/04/16 05:05:08;;;;;;;2.78;1.05;;;;;;;;;;5339778;26;20001;-75
2024/04/16 05:07:36;;;;;;;2.72;1.05;;;;;;;;;;5347012;26;20020;-75
2024/04/16 05:10:03;;;;;;;2.33;1.00;;;;;;;;;;5347686;26;20351;-75
2024/04/16 05:12:32;;;;;;;3.45;1.00;;;;;;;;;;5347502;26;20013;-75
2024/04/16 05:14:57;;;;;;;3.20;1.02;;;;;;;;;;5347606;26;19997;-75
2024/04/16 05:17:26;;;;;;;2.55;0.95;;;;;;;;;;5363850;26;20000;-75
2024/04/16 05:19:52;;;;;;;2.83;1.20;;;;;;;;;;5347080;26;20051;-75
2024/04/16 05:22:24;;;;;;;4.53;1.02;;;;;;;;;;5347186;26;20001;-76
2024/04/16 05:24:50;;;;;;;3.22;1.17;;;;;;;;;;5347532;26;20023;-75
2024/04/16 05:27:18;;;;;;;2.90;1.08;;;;;;;;;;5347546;26;20626;-75
2024/04/16 05:29:44;;;;;;;4.60;1.00;;;;;;;;;;5347281;26;20343;-76
2024/04/16 05:32:14;;;;;;;2.10;0.95;;;;;;;;;;5349133;26;20005;-76
2024/04/16 05:34:40;;;;;;;3.33;1.37;;;;;;;;;;5346698;26;20005;-76
2024/04/16 05:37:08;;;;;;;3.33;1.10;;;;;;;;;;5344906;26;20001;-75
2024/04/16 05:39:37;;;;;;;3.33;1.08;;;;;;;;;;5347294;26;20013;-76
2024/04/16 05:42:06;;;;;;;4.07;1.10;;;;;;;;;;5347209;26;20016;-75
2024/04/16 05:44:32;;;;;;;4.03;1.02;;;;;;;;;;5347023;26;20075;-75
2024/04/16 05:47:00;;;;;;;2.13;0.88;;;;;;;;;;5346575;26;20009;-74
2024/04/16 05:49:26;;;;;;;3.15;1.30;;;;;;;;;;5346252;26;20365;-75
2024/04/16 05:51:57;;;;;;;3.70;1.30;;;;;;;;;;5359309;26;20012;-76
2024/04/16 05:54:23;;;;;;;4.05;1.65;;;;;;;;;;5352728;26;20011;-75
2024/04/16 05:56:54;;;;;;;3.72;1.20;;;;;;;;;;5354165;26;20000;-75
2024/04/16 05:59:20;;;;;;;1.30;0.70;;;;;;;;;;5351938;26;20001;-74
2024/04/16 06:01:49;;;;;;;3.00;1.33;;;;;;;;;;5346195;26;20037;-75
2024/04/16 06:04:15;;;;;;;1.83;0.90;;;;;;;;;;5345970;26;20001;-75
2024/04/16 06:06:43;;;;;;;3.95;1.23;;;;;;;;;;5346042;26;20452;-75
2024/04/16 06:09:09;;;;;;;2.38;0.90;;;;;;;;;;5341515;26;20008;-76
2024/04/16 06:11:37;;;;;;;4.50;1.45;;;;;;;;;;5337606;26;20001;-75
2024/04/16 06:14:06;;;;;;;4.20;1.63;;;;;;;;;;5345354;26;20046;-75
2024/04/16 06:16:35;;;;;;;1.75;0.80;;;;;;;;;;5334658;26;20055;-75
2024/04/16 06:19:01;;;;;;;3.08;1.10;;;;;;;;;;5347282;26;20005;-76
2024/04/16 06:21:29;;;;;;;5.03;0.82;;;;;;;;;;5339488;26;20158;-75
2024/04/16 06:23:55;;;;;;;1.02;0.85;;;;;;;;;;5344204;26;20020;-75
2024/04/16 06:26:24;;;;;;;1.17;0.65;;;;;;;;;;5338301;26;20001;-75
2024/04/16 06:28:50;;;;;;;1.73;0.65;;;;;;;;;;5337932;26;20009;-76
2024/04/16 06:31:21;;;;;;;1.65;0.60;;;;;;;;;;5329685;26;20017;-75
2024/04/16 06:33:47;;;;;;;1.52;0.80;;;;;;;;;;5322023;26;20005;-75
2024/04/16 06:36:15;;;;;;;1.13;0.60;;;;;;;;;;5328592;26;20079;-75
2024/04/16 06:38:41;;;;;;;0.93;0.60;;;;;;;;;;5333961;26;20492;-76
2024/04/16 06:41:09;;;;;;;1.40;0.68;;;;;;;;;;5329395;26;20001;-76
2024/04/16 06:43:35;;;;;;;0.57;0.40;;;;;;;;;;5322409;26;20520;-75
2024/04/16 06:46:04;;;;;;;1.80;0.50;;;;;;;;;;5345507;26;20025;-75
2024/04/16 06:48:33;;;;;;;1.85;0.55;;;;;;;;;;5343668;26;20407;-76
2024/04/16 06:51:02;;;;;;;0.55;0.45;;;;;;;;;;5353256;26;20483;-75
2024/04/16 06:53:28;;;;;;;2.10;0.70;;;;;;;;;;5326581;26;20016;-75
2024/04/16 06:56:03;;;;;;;0.90;0.52;;;;;;;;;;5333729;26;20016;-75
2024/04/16 06:58:29;;;;;;;1.05;0.70;;;;;;;;;;5320828;26;20006;-75
2024/04/16 07:00:58;;;;;;;1.77;0.70;;;;;;;;;;5346165;26;20005;-76
2024/04/16 07:03:24;;;;;;;2.67;0.70;;;;;;;;;;5345540;26;20015;-75
2024/04/16 07:05:55;;;;;;;2.58;0.95;;;;;;;;;;5345313;26;20001;-75
2024/04/16 07:08:22;;;;;;;2.60;0.90;;;;;;;;;;5355098;26;20296;-75
2024/04/16 07:10:51;;;;;;;0.82;0.60;;;;;;;;;;5353714;26;20008;-75
2024/04/16 07:13:17;;;;;;;2.28;0.60;;;;;;;;;;5347801;26;20475;-75
2024/04/16 07:15:45;;;;;;;2.28;0.80;;;;;;;;;;5338040;26;20013;-76
2024/04/16 07:18:11;;;;;;;1.77;0.77;;;;;;;;;;5325336;26;20001;-75
2024/04/16 07:20:40;;;;;;;1.42;0.60;;;;;;;;;;5331140;26;20001;-77
2024/04/16 07:23:08;;;;;;;1.27;0.68;;;;;;;;;;5338119;26;20021;-75
2024/04/16 07:25:37;;;;;;;1.98;0.70;;;;;;;;;;5326356;26;20348;-76
2024/04/16 07:28:03;;;;;;;1.52;0.70;;;;;;;;;;5315380;26;20001;-73
2024/04/16 07:30:31;;;;;;;1.50;0.70;;;;;;;;;;5321324;26;20016;-76
2024/04/16 07:32:57;;;;;;;3.10;1.08;;;;;;;;;;5338340;26;20005;-76
2024/04/16 07:35:26;;;;;;;1.33;0.75;;;;;;;;;;5332955;26;20005;-76
2024/04/16 07:37:52;;;;;;;2.92;0.70;;;;;;;;;;5341124;26;20001;-78
2024/04/16 07:40:23;;;;;;;0.95;0.50;;;;;;;;;;5338319;26;20407;-77
2024/04/16 07:42:50;;;;;;;1.60;0.50;;;;;;;;;;5348957;26;20005;-77
2024/04/16 07:45:19;;;;;;;1.42;0.63;;;;;;;;;;5346647;26;20008;-76
2024/04/16 07:47:45;;;;;;;2.03;0.82;;;;;;;;;;5321422;26;20149;-78
2024/04/16 07:50:13;;;;;;;2.30;0.70;;;;;;;;;;5329147;26;20451;-82
2024/04/16 07:52:39;;;;;;;0.88;0.50;;;;;;;;;;5347720;26;20009;-81
2024/04/16 07:55:08;;;;;;;1.63;0.63;;;;;;;;;;5331603;26;20082;-81
2024/04/16 07:57:36;;;;;;;1.95;0.80;;;;;;;;;;5324989;26;20044;-76
2024/04/16 08:00:06;;;;;;;1.25;0.60;;;;;;;;;;5347723;26;20016;-76
2024/04/16 08:02:32;;;;;;;3.03;0.73;;;;;;;;;;5346775;26;20005;-77
2024/04/16 08:05:01;;;;;;;2.92;0.80;;;;;;;;;;5336125;26;20001;-79
2024/04/16 08:07:26;;;;;;;2.70;0.80;;;;;;;;;;5324552;26;20071;-76
2024/04/16 08:09:55;;;;;;;2.30;0.60;;;;;;;;;;5331003;26;19997;-77
2024/04/16 08:12:24;;;;;;;2.17;0.70;;;;;;;;;;5345046;26;20021;-82
2024/04/16 08:14:52;;;;;;;1.23;0.60;;;;;;;;;;5345313;26;20425;-77
2024/04/16 08:17:21;;;;;;;2.25;1.00;;;;;;;;;;5339960;26;20001;-76
2024/04/16 08:19:46;;;;;;;3.35;0.80;;;;;;;;;;5337742;26;20032;-76
2024/04/16 08:22:15;;;;;;;3.00;1.08;;;;;;;;;;5344062;26;19997;-76
2024/04/16 08:24:41;;;;;;;1.65;0.90;;;;;;;;;;5353056;26;20378;-76
2024/04/16 08:27:10;;;;;;;1.83;0.77;;;;;;;;;;5349605;26;20078;-76
2024/04/16 08:29:36;;;;;;;1.10;0.80;;;;;;;;;;5352162;26;19996;-76
2024/04/16 08:32:07;;;;;;;2.58;0.98;;;;;;;;;;5347661;26;20530;-76
2024/04/16 08:34:38;;;;;;;2.88;0.80;;;;;;;;;;5342837;26;20040;-76
2024/04/16 08:37:06;;;;;;;;;;;;;;;;;;5327458;26;20013;-76
2024/04/16 08:39:33;;;;;;;1.33;0.85;;;;;;;;;;5322186;26;19961;-75
2024/04/16 08:42:02;;;;;;;3.42;1.25;;;;;;;;;;5338222;26;20040;-76
2024/04/16 08:44:29;;;;;;;1.95;0.95;;;;;;;;;;5342610;26;20005;-78
2024/04/16 08:47:00;;;;;;;1.75;0.85;;;;;;;;;;5338996;26;20005;-75
2024/04/16 08:49:30;;;;;;;2.17;0.90;;;;;;;;;;5335956;26;20015;-75
2024/04/16 08:52:00;;;;;;;2.20;1.03;;;;;;;;;;5342435;26;20028;-76
2024/04/16 08:54:28;;;;;;;1.90;0.88;;;;;;;;;;5329940;26;20001;-75
2024/04/16 08:56:57;;;;;;;2.47;0.98;;;;;;;;;;5339739;26;20005;-75
2024/04/16 08:59:23;;;;;;;2.97;0.95;;;;;;;;;;5341286;26;20001;-75
2024/04/16 09:01:52;;;;;;;1.85;0.80;;;;;;;;;;5337741;26;20009;-75
2024/04/16 09:04:18;;;;;;;1.65;0.80;;;;;;;;;;5339857;26;20504;-75
2024/04/16 09:06:50;;;;;;;4.03;0.85;;;;;;;;;;5341955;26;20036;-76
2024/04/16 09:09:15;;;;;;;3.58;1.05;;;;;;;;;;5341636;26;20005;-76
2024/04/16 09:11:45;;;;;;;3.28;1.02;;;;;;;;;;5340633;26;20019;-77
2024/04/16 09:14:11;;;;;;;3.38;1.00;;;;;;;;;;5338380;26;20004;-77
2024/04/16 09:16:40;;;;;;;2.67;1.05;;;;;;;;;;5327827;26;20450;-77
2024/04/16 09:19:06;;;;;;;3.15;0.90;;;;;;;;;;5316594;26;20010;-77
2024/04/16 09:21:35;;;;;;;5.03;1.23;;;;;;;;;;5328500;26;20477;-76
2024/04/16 09:24:05;;;;;;;2.80;1.10;;;;;;;;;;5332579;26;20005;-77
2024/04/16 09:26:36;;;;;;;2.53;0.77;;;;;;;;;;5334885;26;20543;-76
2024/04/16 09:29:02;;;;;;;3.70;1.00;;;;;;;;;;5326780;26;20010;-74
2024/04/16 09:31:31;;;;;;;3.50;0.80;;;;;;;;;;5342227;26;20464;-74
2024/04/16 09:34:04;;;;;;;3.35;0.82;;;;;;;;;;5330565;26;20041;-74
2024/04/16 09:36:33;;;;;;;2.28;0.98;;;;;;;;;;5333242;26;20000;-74
2024/04/16 09:38:59;;;;;;;1.90;0.77;;;;;;;;;;5346512;26;20000;-74
2024/04/16 09:41:31;;;;;;;3.20;1.08;;;;;;;;;;5335906;26;20009;-75
2024/04/16 09:43:58;;;;;;;4.00;1.25;;;;;;;;;;5323789;26;20010;-76
2024/04/16 09:46:27;;;;;;;5.95;1.25;;;;;;;;;;5336474;26;20355;-75
2024/04/16 09:48:55;;;;;;;4.45;1.00;;;;;;;;;;5345548;26;20062;-75
2024/04/16 09:51:26;;;;;;;4.95;1.15;;;;;;;;;;5345704;26;20017;-75
2024/04/16 09:53:53;;;;;;;2.47;0.88;;;;;;;;;;5332923;26;20005;-75
2024/04/16 09:56:23;;;;;;;3.65;1.02;;;;;;;;;;5335151;26;20005;-75
2024/04/16 09:58:54;;;;;;;3.53;1.17;;;;;;;;;;5359491;26;20015;-75
2024/04/16 10:01:25;;;;;;;3.60;1.40;;;;;;;;;;5337276;26;20001;-75
2024/04/16 10:03:52;;;;;;;5.18;1.23;;;;;;;;;;5333768;26;20001;-75
2024/04/16 10:06:21;;;;;;;3.30;0.90;;;;;;;;;;5330181;26;20465;-75
2024/04/16 10:08:48;;;;;;;2.78;0.98;;;;;;;;;;5329627;26;20001;-76
2024/04/16 10:11:17;;;;;;;4.57;1.33;;;;;;;;;;5315768;26;20783;-75
2024/04/16 10:13:43;;;;;;;5.32;1.58;;;;;;;;;;5331719;26;20015;-75
2024/04/16 10:16:17;;;;;;;6.07;1.33;;;;;;;;;;5316083;26;20005;-75
2024/04/16 10:18:52;;;;;;;5.80;1.20;;;;;;;;;;5345854;26;20378;-75
2024/04/16 10:21:24;;;;;;;5.63;1.20;;;;;;;;;;5345216;26;20015;-75
2024/04/16 10:23:59;;;;;;;4.85;1.20;;;;;;;;;;5348098;26;20396;-75
2024/04/16 10:26:29;;;;;;;4.32;1.33;;;;;;;;;;5345829;26;20078;-76
2024/04/16 10:28:55;;;;;;;3.47;1.00;;;;;;;;;;5350018;26;20009;-75
2024/04/16 10:31:33;;;;;;;3.40;1.30;;;;;;;;;;5352649;26;20008;-76
2024/04/16 10:34:00;;;;;;;4.32;1.25;;;;;;;;;;5346957;26;20363;-76
2024/04/16 10:36:30;;;;;;;3.85;1.15;;;;;;;;;;5345010;26;20001;-76
2024/04/16 10:38:56;;;;;;;2.63;1.17;;;;;;;;;;5346130;26;20008;-76
2024/04/16 10:41:28;;;;;;;5.07;1.20;;;;;;;;;;5345797;26;20001;-76
2024/04/16 10:43:55;;;;;;;4.05;0.93;;;;;;;;;;5344985;26;20019;-76
2024/04/16 10:46:28;;;;;;;3.50;0.90;;;;;;;;;;5344744;26;20005;-76
2024/04/16 10:48:55;;;;;;;4.07;0.90;;;;;;;;;;5345244;26;20343;-75
2024/04/16 10:51:23;;;;;;;1.63;0.80;;;;;;;;;;5345564;26;20008;-75
2024/04/16 10:53:49;;;;;;;4.82;1.65;;;;;;;;;;5344810;26;20042;-75
2024/04/16 10:56:18;;;;;;;4.13;0.98;;;;;;;;;;5341883;26;20001;-75
2024/04/16 10:58:44;;;;;;;3.35;0.93;;;;;;;;;;5334842;26;20070;-75
2024/04/16 11:01:13;;;;;;;2.97;0.93;;;;;;;;;;5345423;26;20029;-75
2024/04/16 11:03:41;;;;;;;4.07;1.10;;;;;;;;;;5345671;26;20012;-74
2024/04/16 11:06:11;;;;;;;5.63;1.20;;;;;;;;;;5343722;26;20001;-75
2024/04/16 11:08:39;;;;;;;2.53;0.80;;;;;;;;;;5344737;26;20471;-75
2024/04/16 11:11:07;;;;;;;6.97;1.35;;;;;;;;;;5344518;26;20009;-75
2024/04/16 11:13:33;;;;;;;3.80;1.20;;;;;;;;;;5332276;26;20011;-76
2024/04/16 11:16:02;;;;;;;2.95;1.00;;;;;;;;;;5344507;26;20005;-75
2024/04/16 11:18:30;;;;;;;3.17;0.98;;;;;;;;;;5343830;26;20078;-75
2024/04/16 11:21:02;;;;;;;3.25;1.02;;;;;;;;;;5344928;26;20332;-75
2024/04/16 11:23:28;;;;;;;8.65;1.30;;;;;;;;;;5343750;26;20012;-76
2024/04/16 11:25:56;;;;;;;3.03;1.17;;;;;;;;;;5343747;26;20501;-75
2024/04/16 11:28:22;;;;;;;3.20;1.13;;;;;;;;;;5344028;26;20036;-75
2024/04/16 11:30:57;;;;;;;5.35;1.50;;;;;;;;;;5344809;26;20419;-76
2024/04/16 11:33:24;;;;;;;2.70;0.90;;;;;;;;;;5345692;26;20359;-75
2024/04/16 11:35:52;;;;;;;4.90;1.20;;;;;;;;;;5346319;26;20001;-76
2024/04/16 11:38:21;;;;;;;3.40;1.00;;;;;;;;;;5345768;26;19997;-76
2024/04/16 11:40:49;;;;;;;2.00;0.68;;;;;;;;;;5346442;26;20015;-76
2024/04/16 11:43:17;;;;;;;1.95;0.88;;;;;;;;;;5344358;26;20388;-74
2024/04/16 11:45:45;;;;;;;3.60;1.63;;;;;;;;;;5344379;26;20464;-75
2024/04/16 11:48:12;;;;;;;3.78;1.42;;;;;;;;;;5344391;26;20343;-75
2024/04/16 11:50:40;;;;;;;3.05;1.25;;;;;;;;;;5344270;26;20001;-75
2024/04/16 11:53:06;;;;;;;2.65;0.80;;;;;;;;;;5344601;26;20001;-75
2024/04/16 11:55:37;;;;;;;2.55;0.80;;;;;;;;;;5343332;26;20000;-75
2024/04/16 11:58:03;;;;;;;8.50;1.05;;;;;;;;;;5344152;26;19997;-75
2024/04/16 12:00:32;;;;;;;3.22;0.90;;;;;;;;;;5345752;26;20005;-74
2024/04/16 12:02:58;;;;;;;2.50;0.65;;;;;;;;;;5346030;26;20015;-75
2024/04/16 12:05:26;;;;;;;2.70;1.08;;;;;;;;;;5343976;26;20004;-74
2024/04/16 12:07:52;;;;;;;5.20;1.02;;;;;;;;;;5344222;26;20001;-74
2024/04/16 12:10:21;;;;;;;4.75;1.25;;;;;;;;;;5345785;26;20360;-75
2024/04/16 12:12:50;;;;;;;3.25;0.90;;;;;;;;;;5344378;26;20001;-74
2024/04/16 12:15:19;;;;;;;4.10;1.00;;;;;;;;;;5343842;26;19997;-74
2024/04/16 12:17:44;;;;;;;3.88;1.15;;;;;;;;;;5343771;26;19997;-74
2024/04/16 12:20:13;;;;;;;2.30;1.08;;;;;;;;;;5343565;26;20035;-74
2024/04/16 12:22:39;;;;;;;6.65;1.23;;;;;;;;;;5346637;26;20011;-75
2024/04/16 12:25:08;;;;;;;2.38;0.75;;;;;;;;;;5344427;26;20001;-75
2024/04/16 12:27:34;;;;;;;6.07;1.27;;;;;;;;;;5344375;26;20011;-76
2024/04/16 12:30:05;;;;;;;2.70;1.00;;;;;;;;;;5344414;26;20005;-75
2024/04/16 12:32:31;;;;;;;1.88;0.90;;;;;;;;;;5342561;26;20009;-75
2024/04/16 12:35:00;;;;;;;2.72;0.85;;;;;;;;;;5344535;26;20004;-74
2024/04/16 12:37:25;;;;;;;3.70;1.27;;;;;;;;;;5346129;26;19997;-74
2024/04/16 12:39:54;;;;;;;3.78;1.10;;;;;;;;;;5348095;26;20079;-75
2024/04/16 12:42:20;;;;;;;3.78;2.17;;;;;;;;;;5347181;26;20001;-75
2024/04/16 12:44:49;;;;;;;1.38;0.70;;;;;;;;;;5344088;26;20120;-75
2024/04/16 12:47:17;;;;;;;3.47;0.80;;;;;;;;;;5343512;26;20012;-74
2024/04/16 12:49:46;;;;;;;2.58;0.90;;;;;;;;;;5344468;26;20000;-75
2024/04/16 12:52:11;;;;;;;1.45;0.63;;;;;;;;;;5346814;26;20005;-75
2024/04/16 12:54:40;;;;;;;3.58;0.90;;;;;;;;;;5343868;26;20008;-74
2024/04/16 12:57:06;;;;;;;5.45;1.30;;;;;;;;;;5343748;26;19997;-75
2024/04/16 12:59:35;;;;;;;5.43;0.82;;;;;;;;;;5342764;26;20071;-76
2024/04/16 13:02:00;;;;;;;2.70;0.73;;;;;;;;;;5343469;26;20001;-76
2024/04/16 13:04:32;;;;;;;1.92;0.70;;;;;;;;;;5341017;26;20016;-75
2024/04/16 13:06:57;;;;;;;2.92;1.00;;;;;;;;;;5345328;26;20011;-76
2024/04/16 13:09:26;;;;;;;2.53;0.80;;;;;;;;;;5346319;26;20004;-75
2024/04/16 13:11:52;;;;;;;4.88;1.35;;;;;;;;;;5346669;26;20089;-75
2024/04/16 13:14:20;;;;;;;2.33;0.80;;;;;;;;;;5345994;26;20001;-75
2024/04/16 13:16:46;;;;;;;2.38;0.70;;;;;;;;;;5346512;26;20037;-75
2024/04/16 13:19:15;;;;;;;2.38;0.90;;;;;;;;;;5346505;26;20076;-75
2024/04/16 13:21:43;;;;;;;3.78;1.10;;;;;;;;;;5346495;26;20359;-75
2024/04/16 13:24:12;;;;;;;3.10;1.00;;;;;;;;;;5346954;26;20482;-74
2024/04/16 13:26:38;;;;;;;4.78;0.95;;;;;;;;;;5345955;26;20001;-75
2024/04/16 13:29:07;;;;;;;2.42;0.90;;;;;;;;;;5346282;26;20129;-75
2024/04/16 13:31:33;;;;;;;2.13;0.70;;;;;;;;;;5346444;26;20007;-77
2024/04/16 13:34:01;;;;;;;2.33;0.70;;;;;;;;;;5346549;26;20000;-75
2024/04/16 13:36:27;;;;;;;2.13;0.88;;;;;;;;;;5342664;26;20480;-75
2024/04/16 13:38:58;;;;;;;2.40;1.02;;;;;;;;;;5346436;26;20078;-74
2024/04/16 13:41:24;;;;;;;3.42;0.95;;;;;;;;;;5346389;26;20005;-76
2024/04/16 13:43:52;;;;;;;2.42;0.80;;;;;;;;;;5347000;26;20359;-76
2024/04/16 13:46:18;;;;;;;4.95;1.25;;;;;;;;;;5346138;26;20001;-75
2024/04/16 13:48:47;;;;;;;4.75;1.00;;;;;;;;;;5347707;26;20001;-75
2024/04/16 13:51:13;;;;;;;2.63;0.70;;;;;;;;;;5345923;26;20011;-75
2024/04/16 13:53:41;;;;;;;2.08;0.80;;;;;;;;;;5345619;26;20001;-77
2024/04/16 13:56:10;;;;;;;1.35;0.80;;;;;;;;;;5342703;26;19996;-75
2024/04/16 13:58:38;;;;;;;1.92;0.80;;;;;;;;;;5347755;26;20001;-76
2024/04/16 14:01:04;;;;;;;3.30;1.00;;;;;;;;;;5346744;26;19997;-75
2024/04/16 14:03:32;;;;;;;2.35;0.70;;;;;;;;;;5346127;26;20051;-75
2024/04/16 14:05:58;;;;;;;1.90;0.55;;;;;;;;;;5345948;26;20001;-75
2024/04/16 14:08:27;;;;;;;2.42;0.75;;;;;;;;;;5345592;26;20020;-75
2024/04/16 14:10:53;;;;;;;2.03;0.77;;;;;;;;;;5345989;26;20015;-77
2024/04/16 14:13:24;;;;;;;4.57;0.80;;;;;;;;;;5346299;26;20359;-78
2024/04/16 14:15:50;;;;;;;2.30;0.63;;;;;;;;;;5345922;26;19997;-75
2024/04/16 14:18:18;;;;;;;3.30;0.80;;;;;;;;;;5352248;26;20001;-76
2024/04/16 14:20:44;;;;;;;3.38;0.70;;;;;;;;;;5336179;26;20070;-76
2024/04/16 14:23:12;;;;;;;3.45;0.80;;;;;;;;;;5345817;26;20005;-75
2024/04/16 14:25:38;;;;;;;6.55;1.20;;;;;;;;;;5345696;26;20001;-76
2024/04/16 14:28:07;;;;;;;3.25;1.10;;;;;;;;;;5345446;26;20007;-75
2024/04/16 14:30:35;;;;;;;3.83;0.90;;;;;;;;;;5345659;26;20001;-75
2024/04/16 14:33:04;;;;;;;3.28;1.23;;;;;;;;;;5345127;26;20013;-75
2024/04/16 14:35:30;;;;;;;3.17;0.50;;;;;;;;;;5341225;26;20005;-75
2024/04/16 14:37:58;;;;;;;1.85;0.60;;;;;;;;;;5345107;26;20001;-75
2024/04/16 14:40:24;;;;;;;2.25;0.70;;;;;;;;;;5344631;26;20332;-76
2024/04/16 14:42:53;;;;;;;2.30;0.70;;;;;;;;;;5345108;26;20015;-76
2024/04/16 14:45:19;;;;;;;2.50;0.63;;;;;;;;;;5345618;26;20001;-76
2024/04/16 14:47:50;;;;;;;1.63;0.75;;;;;;;;;;5344666;26;20347;-75
2024/04/16 14:50:17;;;;;;;2.50;0.70;;;;;;;;;;5345186;26;20015;-75